Benalla, Victoria

4:51 PM AEST on July 28, 2016 (GMT +1000)
Salisbury Street Benalla | | Change Station

Elev 564 ft 36.55 °S, 145.99 °E | Updated 30 seconds ago

Overcast
Overcast
50.5 °F
Feels Like 50.5 °F
N
0.9
Wind Variable Wind from North
Gusts 2.5 mph

Today
High -- | Low -- °F
--% Chance of Precip.
Yesterday
High -- | Low -- °F
Precip. -- in
Pressure 30.27 in
Visibility -9999.0 miles
Clouds Scattered Clouds 700 ft
Mostly Cloudy 1200 ft
Overcast 2000 ft
Dew Point 45 °F
Humidity 80%
Rainfall 0.00 in
Snow Depth Not available.
7:17 AM 5:28 PM
Waning Crescent, 35% visible
SPECI YWGT 280630Z AUTO 24005KT 220V290 4600 -DZ SCT007 BKN012 OVC020 09/08 Q1025
Pressure 30.27 in
Visibility -9999.0 miles
Clouds Scattered Clouds 700 ft
Mostly Cloudy 1200 ft
Overcast 2000 ft
Dew Point 45 °F
Humidity 80%
Rainfall 0.00 in
Snow Depth Not available.
7:17 AM 5:28 PM
Waning Crescent, 35% visible
SPECI YWGT 280630Z AUTO 24005KT 220V290 4600 -DZ SCT007 BKN012 OVC020 09/08 Q1025

10-Day Weather Forecast

Almanac

Astronomy

Jul. 28, 2016 Rise Set
Actual Time
Civil Twilight
Nautical Twilight
Astronomical Twilight
Moon
Length of Visible Light
Length of Day
Tomorrow will be .
, % of the Moon is Illuminated

Today's Extremes

Country Highs Country Lows

Community

WunderPhotos

Upload Photos

1,928,064 photos uploaded!

WunderBlog® & News

Nearby

Air Quality

  Air Quality AQ Index Pollutant
Not available.

Snow Depth

Station Depth Elevation

Earthquake Activity

City Distance Mag. Time & Date
Minimum magnitude displayed is 2.5.

Coastal Water Temperatures

Place Temperature

Stations

Nearby Weather Stations

Station Location Temp. Windchill Dew Point Humidity Wind Precip. Elev Updated Type